sensor_id;sensor_type;location;lat;lon;timestamp;P1;durP1;ratioP1;P2;durP2;ratioP2
33094;SDS011;19459;53.044;8.910;2023-05-07T00:00:37;27.08;;;18.20;;
33094;SDS011;19459;53.044;8.910;2023-05-07T00:03:03;30.00;;;17.08;;
33094;SDS011;19459;53.044;8.910;2023-05-07T00:05:29;34.03;;;19.85;;
33094;SDS011;19459;53.044;8.910;2023-05-07T00:07:54;28.77;;;18.30;;
33094;SDS011;19459;53.044;8.910;2023-05-07T00:10:20;24.77;;;17.35;;
33094;SDS011;19459;53.044;8.910;2023-05-07T00:12:46;25.10;;;17.90;;
33094;SDS011;19459;53.044;8.910;2023-05-07T00:15:12;26.48;;;18.90;;
33094;SDS011;19459;53.044;8.910;2023-05-07T00:17:38;23.20;;;16.45;;
33094;SDS011;19459;53.044;8.910;2023-05-07T00:20:04;27.17;;;19.25;;
33094;SDS011;19459;53.044;8.910;2023-05-07T00:22:31;25.05;;;17.73;;
33094;SDS011;19459;53.044;8.910;2023-05-07T00:24:57;27.13;;;17.40;;
33094;SDS011;19459;53.044;8.910;2023-05-07T00:27:23;23.95;;;17.02;;
33094;SDS011;19459;53.044;8.910;2023-05-07T00:29:50;25.05;;;19.50;;
33094;SDS011;19459;53.044;8.910;2023-05-07T00:32:16;27.23;;;18.75;;
33094;SDS011;19459;53.044;8.910;2023-05-07T00:34:42;25.23;;;18.45;;
33094;SDS011;19459;53.044;8.910;2023-05-07T00:37:08;23.67;;;17.83;;
33094;SDS011;19459;53.044;8.910;2023-05-07T00:39:34;25.55;;;18.95;;
33094;SDS011;19459;53.044;8.910;2023-05-07T00:42:01;25.48;;;19.15;;
33094;SDS011;19459;53.044;8.910;2023-05-07T00:44:27;27.92;;;19.42;;
33094;SDS011;19459;53.044;8.910;2023-05-07T00:46:54;25.85;;;18.52;;
33094;SDS011;19459;53.044;8.910;2023-05-07T00:49:22;29.05;;;19.58;;
33094;SDS011;19459;53.044;8.910;2023-05-07T00:52:01;25.98;;;18.17;;
33094;SDS011;19459;53.044;8.910;2023-05-07T00:54:27;28.00;;;19.27;;
33094;SDS011;19459;53.044;8.910;2023-05-07T00:56:53;28.08;;;17.60;;
33094;SDS011;19459;53.044;8.910;2023-05-07T00:59:20;26.42;;;18.60;;
33094;SDS011;19459;53.044;8.910;2023-05-07T01:01:45;28.95;;;19.15;;
33094;SDS011;19459;53.044;8.910;2023-05-07T01:04:11;32.30;;;19.73;;
33094;SDS011;19459;53.044;8.910;2023-05-07T01:06:37;26.85;;;18.02;;
33094;SDS011;19459;53.044;8.910;2023-05-07T01:09:03;29.60;;;18.83;;
33094;SDS011;19459;53.044;8.910;2023-05-07T01:11:30;29.40;;;19.25;;
33094;SDS011;19459;53.044;8.910;2023-05-07T01:13:56;26.52;;;18.50;;
33094;SDS011;19459;53.044;8.910;2023-05-07T01:16:24;25.90;;;17.48;;
33094;SDS011;19459;53.044;8.910;2023-05-07T01:18:50;26.55;;;18.42;;
33094;SDS011;19459;53.044;8.910;2023-05-07T01:21:16;24.60;;;17.52;;
33094;SDS011;19459;53.044;8.910;2023-05-07T01:23:43;25.00;;;17.70;;
33094;SDS011;19459;53.044;8.910;2023-05-07T01:26:10;29.17;;;19.10;;
33094;SDS011;19459;53.044;8.910;2023-05-07T01:28:36;27.95;;;18.95;;
33094;SDS011;19459;53.044;8.910;2023-05-07T01:31:02;28.75;;;18.63;;
33094;SDS011;19459;53.044;8.910;2023-05-07T01:33:29;26.27;;;18.70;;
33094;SDS011;19459;53.044;8.910;2023-05-07T01:35:59;27.38;;;18.30;;
33094;SDS011;19459;53.044;8.910;2023-05-07T01:38:28;29.83;;;18.88;;
33094;SDS011;19459;53.044;8.910;2023-05-07T01:40:55;28.63;;;18.95;;
33094;SDS011;19459;53.044;8.910;2023-05-07T01:43:21;35.38;;;19.63;;
33094;SDS011;19459;53.044;8.910;2023-05-07T01:45:47;26.40;;;17.98;;
33094;SDS011;19459;53.044;8.910;2023-05-07T01:48:14;34.08;;;19.20;;
33094;SDS011;19459;53.044;8.910;2023-05-07T01:50:41;25.88;;;17.73;;
33094;SDS011;19459;53.044;8.910;2023-05-07T01:53:08;30.85;;;19.10;;
33094;SDS011;19459;53.044;8.910;2023-05-07T01:55:33;25.40;;;17.27;;
33094;SDS011;19459;53.044;8.910;2023-05-07T01:58:01;27.45;;;18.45;;
33094;SDS011;19459;53.044;8.910;2023-05-07T02:00:28;27.02;;;17.48;;
33094;SDS011;19459;53.044;8.910;2023-05-07T02:02:53;26.17;;;17.55;;
33094;SDS011;19459;53.044;8.910;2023-05-07T02:05:20;31.08;;;18.30;;
33094;SDS011;19459;53.044;8.910;2023-05-07T02:07:46;29.05;;;18.45;;
33094;SDS011;19459;53.044;8.910;2023-05-07T02:10:11;30.67;;;18.73;;
33094;SDS011;19459;53.044;8.910;2023-05-07T02:12:37;26.05;;;16.45;;
33094;SDS011;19459;53.044;8.910;2023-05-07T02:15:03;29.63;;;18.48;;
33094;SDS011;19459;53.044;8.910;2023-05-07T02:17:30;28.65;;;17.83;;
33094;SDS011;19459;53.044;8.910;2023-05-07T02:19:57;32.15;;;17.35;;
33094;SDS011;19459;53.044;8.910;2023-05-07T02:22:23;29.00;;;17.88;;
33094;SDS011;19459;53.044;8.910;2023-05-07T02:24:50;28.42;;;17.65;;
33094;SDS011;19459;53.044;8.910;2023-05-07T02:27:16;29.88;;;18.65;;
33094;SDS011;19459;53.044;8.910;2023-05-07T02:29:41;32.45;;;18.60;;
33094;SDS011;19459;53.044;8.910;2023-05-07T02:32:07;29.10;;;19.02;;
33094;SDS011;19459;53.044;8.910;2023-05-07T02:34:33;31.50;;;17.67;;
33094;SDS011;19459;53.044;8.910;2023-05-07T02:36:59;34.40;;;19.02;;
33094;SDS011;19459;53.044;8.910;2023-05-07T02:39:24;30.25;;;17.70;;
33094;SDS011;19459;53.044;8.910;2023-05-07T02:41:50;30.45;;;17.00;;
33094;SDS011;19459;53.044;8.910;2023-05-07T02:44:16;28.70;;;18.38;;
33094;SDS011;19459;53.044;8.910;2023-05-07T02:46:42;27.08;;;17.58;;
33094;SDS011;19459;53.044;8.910;2023-05-07T02:49:07;24.52;;;16.27;;
33094;SDS011;19459;53.044;8.910;2023-05-07T02:51:33;26.85;;;17.30;;
33094;SDS011;19459;53.044;8.910;2023-05-07T02:53:59;25.23;;;16.42;;
33094;SDS011;19459;53.044;8.910;2023-05-07T02:56:26;26.25;;;17.50;;
33094;SDS011;19459;53.044;8.910;2023-05-07T02:58:52;28.30;;;17.65;;
33094;SDS011;19459;53.044;8.910;2023-05-07T03:01:18;26.45;;;17.30;;
33094;SDS011;19459;53.044;8.910;2023-05-07T03:03:43;29.52;;;17.42;;
33094;SDS011;19459;53.044;8.910;2023-05-07T03:06:09;29.33;;;18.50;;
33094;SDS011;19459;53.044;8.910;2023-05-07T03:08:35;25.80;;;16.58;;
33094;SDS011;19459;53.044;8.910;2023-05-07T03:11:01;24.88;;;16.83;;
33094;SDS011;19459;53.044;8.910;2023-05-07T03:13:27;30.10;;;17.90;;
33094;SDS011;19459;53.044;8.910;2023-05-07T03:15:53;27.88;;;17.15;;
33094;SDS011;19459;53.044;8.910;2023-05-07T03:18:19;28.30;;;18.50;;
33094;SDS011;19459;53.044;8.910;2023-05-07T03:20:44;26.65;;;16.52;;
33094;SDS011;19459;53.044;8.910;2023-05-07T03:23:11;25.45;;;17.35;;
33094;SDS011;19459;53.044;8.910;2023-05-07T03:25:36;25.42;;;17.02;;
33094;SDS011;19459;53.044;8.910;2023-05-07T03:28:02;26.00;;;17.38;;
33094;SDS011;19459;53.044;8.910;2023-05-07T03:30:28;28.23;;;16.27;;
33094;SDS011;19459;53.044;8.910;2023-05-07T03:32:54;27.83;;;17.38;;
33094;SDS011;19459;53.044;8.910;2023-05-07T03:35:20;25.83;;;16.77;;
33094;SDS011;19459;53.044;8.910;2023-05-07T03:37:46;26.40;;;18.15;;
33094;SDS011;19459;53.044;8.910;2023-05-07T03:40:11;27.60;;;17.63;;
33094;SDS011;19459;53.044;8.910;2023-05-07T03:42:37;27.35;;;17.42;;
33094;SDS011;19459;53.044;8.910;2023-05-07T03:45:03;23.92;;;16.20;;
33094;SDS011;19459;53.044;8.910;2023-05-07T03:47:30;29.70;;;16.23;;
33094;SDS011;19459;53.044;8.910;2023-05-07T03:49:56;27.08;;;17.65;;
33094;SDS011;19459;53.044;8.910;2023-05-07T03:52:21;21.67;;;15.30;;
33094;SDS011;19459;53.044;8.910;2023-05-07T03:54:51;25.20;;;15.98;;
33094;SDS011;19459;53.044;8.910;2023-05-07T03:57:18;26.67;;;18.02;;
33094;SDS011;19459;53.044;8.910;2023-05-07T03:59:44;25.77;;;15.88;;
33094;SDS011;19459;53.044;8.910;2023-05-07T04:02:10;25.30;;;15.55;;
33094;SDS011;19459;53.044;8.910;2023-05-07T04:04:36;26.80;;;15.90;;
33094;SDS011;19459;53.044;8.910;2023-05-07T04:07:02;25.30;;;16.35;;
33094;SDS011;19459;53.044;8.910;2023-05-07T04:09:28;25.40;;;16.58;;
33094;SDS011;19459;53.044;8.910;2023-05-07T04:11:53;22.88;;;14.73;;
33094;SDS011;19459;53.044;8.910;2023-05-07T04:14:19;22.73;;;15.48;;
33094;SDS011;19459;53.044;8.910;2023-05-07T04:16:45;25.33;;;15.90;;
33094;SDS011;19459;53.044;8.910;2023-05-07T04:19:11;24.42;;;15.73;;
33094;SDS011;19459;53.044;8.910;2023-05-07T04:21:36;25.27;;;15.40;;
33094;SDS011;19459;53.044;8.910;2023-05-07T04:24:02;24.35;;;14.98;;
33094;SDS011;19459;53.044;8.910;2023-05-07T04:26:28;27.95;;;16.25;;
33094;SDS011;19459;53.044;8.910;2023-05-07T04:28:55;22.52;;;15.00;;
33094;SDS011;19459;53.044;8.910;2023-05-07T04:31:22;20.55;;;15.23;;
33094;SDS011;19459;53.044;8.910;2023-05-07T04:33:48;24.63;;;15.35;;
33094;SDS011;19459;53.044;8.910;2023-05-07T04:36:14;24.92;;;15.15;;
33094;SDS011;19459;53.044;8.910;2023-05-07T04:38:39;24.67;;;15.77;;
33094;SDS011;19459;53.044;8.910;2023-05-07T04:41:06;24.33;;;15.35;;
33094;SDS011;19459;53.044;8.910;2023-05-07T04:43:34;20.90;;;14.70;;
33094;SDS011;19459;53.044;8.910;2023-05-07T04:46:00;20.58;;;14.63;;
33094;SDS011;19459;53.044;8.910;2023-05-07T04:48:25;29.98;;;15.27;;
33094;SDS011;19459;53.044;8.910;2023-05-07T04:50:52;27.55;;;16.83;;
33094;SDS011;19459;53.044;8.910;2023-05-07T04:53:18;26.17;;;16.67;;
33094;SDS011;19459;53.044;8.910;2023-05-07T04:55:45;28.85;;;16.30;;
33094;SDS011;19459;53.044;8.910;2023-05-07T04:58:11;23.55;;;15.85;;
33094;SDS011;19459;53.044;8.910;2023-05-07T05:00:37;21.10;;;14.80;;
33094;SDS011;19459;53.044;8.910;2023-05-07T05:03:04;19.98;;;13.93;;
33094;SDS011;19459;53.044;8.910;2023-05-07T05:05:31;22.38;;;15.43;;
33094;SDS011;19459;53.044;8.910;2023-05-07T05:07:57;20.60;;;14.32;;
33094;SDS011;19459;53.044;8.910;2023-05-07T05:10:23;18.88;;;13.43;;
33094;SDS011;19459;53.044;8.910;2023-05-07T05:12:49;18.83;;;12.18;;
33094;SDS011;19459;53.044;8.910;2023-05-07T05:15:15;19.02;;;13.45;;
33094;SDS011;19459;53.044;8.910;2023-05-07T05:17:41;18.25;;;12.80;;
33094;SDS011;19459;53.044;8.910;2023-05-07T05:20:07;18.63;;;12.88;;
33094;SDS011;19459;53.044;8.910;2023-05-07T05:22:34;16.67;;;11.95;;
33094;SDS011;19459;53.044;8.910;2023-05-07T05:25:00;16.70;;;11.85;;
33094;SDS011;19459;53.044;8.910;2023-05-07T05:27:26;18.00;;;13.38;;
33094;SDS011;19459;53.044;8.910;2023-05-07T05:29:51;19.95;;;13.98;;
33094;SDS011;19459;53.044;8.910;2023-05-07T05:32:17;16.92;;;12.50;;
33094;SDS011;19459;53.044;8.910;2023-05-07T05:34:43;22.90;;;13.20;;
33094;SDS011;19459;53.044;8.910;2023-05-07T05:37:09;21.05;;;13.65;;
33094;SDS011;19459;53.044;8.910;2023-05-07T05:39:35;17.42;;;12.45;;
33094;SDS011;19459;53.044;8.910;2023-05-07T05:42:01;16.33;;;12.38;;
33094;SDS011;19459;53.044;8.910;2023-05-07T05:44:27;16.88;;;11.70;;
33094;SDS011;19459;53.044;8.910;2023-05-07T05:46:53;17.08;;;12.50;;
33094;SDS011;19459;53.044;8.910;2023-05-07T05:49:24;16.65;;;11.23;;
33094;SDS011;19459;53.044;8.910;2023-05-07T05:51:50;15.05;;;11.23;;
33094;SDS011;19459;53.044;8.910;2023-05-07T05:54:15;15.25;;;11.30;;
33094;SDS011;19459;53.044;8.910;2023-05-07T05:56:41;15.27;;;10.40;;
33094;SDS011;19459;53.044;8.910;2023-05-07T05:59:08;13.80;;;10.60;;
33094;SDS011;19459;53.044;8.910;2023-05-07T06:01:34;15.05;;;10.68;;
33094;SDS011;19459;53.044;8.910;2023-05-07T06:03:59;17.08;;;11.13;;
33094;SDS011;19459;53.044;8.910;2023-05-07T06:06:25;16.95;;;11.20;;
33094;SDS011;19459;53.044;8.910;2023-05-07T06:08:52;15.43;;;10.88;;
33094;SDS011;19459;53.044;8.910;2023-05-07T06:11:18;15.93;;;10.50;;
33094;SDS011;19459;53.044;8.910;2023-05-07T06:13:43;15.45;;;10.85;;
33094;SDS011;19459;53.044;8.910;2023-05-07T06:16:09;17.00;;;10.88;;
33094;SDS011;19459;53.044;8.910;2023-05-07T06:18:35;14.60;;;10.73;;
33094;SDS011;19459;53.044;8.910;2023-05-07T06:21:01;15.30;;;10.20;;
33094;SDS011;19459;53.044;8.910;2023-05-07T06:23:27;13.93;;;10.07;;
33094;SDS011;19459;53.044;8.910;2023-05-07T06:25:53;12.43;;;9.95;;
33094;SDS011;19459;53.044;8.910;2023-05-07T06:28:18;14.52;;;10.45;;
33094;SDS011;19459;53.044;8.910;2023-05-07T06:30:44;14.60;;;9.88;;
33094;SDS011;19459;53.044;8.910;2023-05-07T06:33:10;13.77;;;10.18;;
33094;SDS011;19459;53.044;8.910;2023-05-07T06:35:36;13.77;;;10.40;;
33094;SDS011;19459;53.044;8.910;2023-05-07T06:38:01;11.95;;;9.90;;
33094;SDS011;19459;53.044;8.910;2023-05-07T06:40:27;11.95;;;9.25;;
33094;SDS011;19459;53.044;8.910;2023-05-07T06:42:53;14.52;;;10.38;;
33094;SDS011;19459;53.044;8.910;2023-05-07T06:45:19;13.68;;;10.10;;
33094;SDS011;19459;53.044;8.910;2023-05-07T06:47:45;13.98;;;10.25;;
33094;SDS011;19459;53.044;8.910;2023-05-07T06:50:11;10.70;;;9.00;;
33094;SDS011;19459;53.044;8.910;2023-05-07T06:52:37;12.00;;;9.05;;
33094;SDS011;19459;53.044;8.910;2023-05-07T06:55:02;14.20;;;8.27;;
33094;SDS011;19459;53.044;8.910;2023-05-07T06:57:29;13.68;;;10.02;;
33094;SDS011;19459;53.044;8.910;2023-05-07T06:59:54;12.85;;;9.40;;
33094;SDS011;19459;53.044;8.910;2023-05-07T07:02:20;13.57;;;10.07;;
33094;SDS011;19459;53.044;8.910;2023-05-07T07:04:46;12.85;;;9.88;;
33094;SDS011;19459;53.044;8.910;2023-05-07T07:07:12;11.18;;;8.70;;
33094;SDS011;19459;53.044;8.910;2023-05-07T07:09:38;13.63;;;9.88;;
33094;SDS011;19459;53.044;8.910;2023-05-07T07:12:04;11.73;;;9.52;;
33094;SDS011;19459;53.044;8.910;2023-05-07T07:14:30;14.05;;;10.93;;
33094;SDS011;19459;53.044;8.910;2023-05-07T07:16:55;14.13;;;11.38;;
33094;SDS011;19459;53.044;8.910;2023-05-07T07:19:21;13.98;;;10.60;;
33094;SDS011;19459;53.044;8.910;2023-05-07T07:21:47;12.63;;;10.15;;
33094;SDS011;19459;53.044;8.910;2023-05-07T07:24:13;13.43;;;9.43;;
33094;SDS011;19459;53.044;8.910;2023-05-07T07:26:44;12.65;;;10.10;;
33094;SDS011;19459;53.044;8.910;2023-05-07T07:29:10;11.27;;;9.30;;
33094;SDS011;19459;53.044;8.910;2023-05-07T07:31:35;10.85;;;9.10;;
33094;SDS011;19459;53.044;8.910;2023-05-07T07:34:01;12.90;;;9.25;;
33094;SDS011;19459;53.044;8.910;2023-05-07T07:36:27;11.45;;;9.02;;
33094;SDS011;19459;53.044;8.910;2023-05-07T07:38:53;13.82;;;10.48;;
33094;SDS011;19459;53.044;8.910;2023-05-07T07:41:19;10.40;;;8.90;;
33094;SDS011;19459;53.044;8.910;2023-05-07T07:43:45;14.45;;;10.40;;
33094;SDS011;19459;53.044;8.910;2023-05-07T07:46:14;12.20;;;9.48;;
33094;SDS011;19459;53.044;8.910;2023-05-07T07:48:40;12.27;;;9.73;;
33094;SDS011;19459;53.044;8.910;2023-05-07T07:51:06;12.27;;;8.82;;
33094;SDS011;19459;53.044;8.910;2023-05-07T07:53:31;11.55;;;8.40;;
33094;SDS011;19459;53.044;8.910;2023-05-07T07:55:57;13.15;;;9.68;;
33094;SDS011;19459;53.044;8.910;2023-05-07T07:58:23;13.88;;;9.48;;
33094;SDS011;19459;53.044;8.910;2023-05-07T08:00:49;11.80;;;9.45;;
33094;SDS011;19459;53.044;8.910;2023-05-07T08:03:16;9.18;;;7.50;;
33094;SDS011;19459;53.044;8.910;2023-05-07T08:05:42;10.23;;;7.57;;
33094;SDS011;19459;53.044;8.910;2023-05-07T08:08:08;11.18;;;8.25;;
33094;SDS011;19459;53.044;8.910;2023-05-07T08:10:34;10.43;;;8.00;;
33094;SDS011;19459;53.044;8.910;2023-05-07T08:13:03;12.07;;;8.32;;
33094;SDS011;19459;53.044;8.910;2023-05-07T08:15:29;8.63;;;7.60;;
33094;SDS011;19459;53.044;8.910;2023-05-07T08:17:55;9.43;;;8.30;;
33094;SDS011;19459;53.044;8.910;2023-05-07T08:20:22;10.80;;;7.57;;
33094;SDS011;19459;53.044;8.910;2023-05-07T08:22:48;8.98;;;7.50;;
33094;SDS011;19459;53.044;8.910;2023-05-07T08:25:14;10.77;;;7.60;;
33094;SDS011;19459;53.044;8.910;2023-05-07T08:27:40;9.52;;;6.95;;
33094;SDS011;19459;53.044;8.910;2023-05-07T08:30:06;10.98;;;7.75;;
33094;SDS011;19459;53.044;8.910;2023-05-07T08:32:33;8.73;;;6.82;;
33094;SDS011;19459;53.044;8.910;2023-05-07T08:34:58;8.00;;;7.13;;
33094;SDS011;19459;53.044;8.910;2023-05-07T08:37:25;14.73;;;8.73;;
33094;SDS011;19459;53.044;8.910;2023-05-07T08:39:51;10.13;;;7.53;;
33094;SDS011;19459;53.044;8.910;2023-05-07T08:42:17;10.65;;;7.95;;
33094;SDS011;19459;53.044;8.910;2023-05-07T08:44:43;10.18;;;8.38;;
33094;SDS011;19459;53.044;8.910;2023-05-07T08:47:14;10.90;;;8.40;;
33094;SDS011;19459;53.044;8.910;2023-05-07T08:49:39;9.75;;;8.43;;
33094;SDS011;19459;53.044;8.910;2023-05-07T08:52:06;10.25;;;7.72;;
33094;SDS011;19459;53.044;8.910;2023-05-07T08:54:32;8.73;;;7.50;;
33094;SDS011;19459;53.044;8.910;2023-05-07T08:56:58;10.57;;;8.23;;
33094;SDS011;19459;53.044;8.910;2023-05-07T08:59:24;11.98;;;8.90;;
33094;SDS011;19459;53.044;8.910;2023-05-07T09:01:50;9.95;;;7.68;;
33094;SDS011;19459;53.044;8.910;2023-05-07T09:04:16;15.63;;;8.23;;
33094;SDS011;19459;53.044;8.910;2023-05-07T09:06:42;10.10;;;7.95;;
33094;SDS011;19459;53.044;8.910;2023-05-07T09:09:08;11.55;;;8.15;;
33094;SDS011;19459;53.044;8.910;2023-05-07T09:11:33;9.88;;;7.88;;
33094;SDS011;19459;53.044;8.910;2023-05-07T09:13:59;9.02;;;7.47;;
33094;SDS011;19459;53.044;8.910;2023-05-07T09:16:29;10.38;;;7.47;;
33094;SDS011;19459;53.044;8.910;2023-05-07T09:18:56;10.57;;;7.82;;
33094;SDS011;19459;53.044;8.910;2023-05-07T09:21:24;12.38;;;8.30;;
33094;SDS011;19459;53.044;8.910;2023-05-07T09:23:51;11.00;;;7.88;;
33094;SDS011;19459;53.044;8.910;2023-05-07T09:26:23;11.75;;;9.90;;
33094;SDS011;19459;53.044;8.910;2023-05-07T09:28:50;11.05;;;9.07;;
33094;SDS011;19459;53.044;8.910;2023-05-07T09:31:16;13.30;;;8.90;;
33094;SDS011;19459;53.044;8.910;2023-05-07T09:33:43;11.13;;;8.60;;
33094;SDS011;19459;53.044;8.910;2023-05-07T09:36:09;12.75;;;8.77;;
33094;SDS011;19459;53.044;8.910;2023-05-07T09:38:36;13.70;;;8.85;;
33094;SDS011;19459;53.044;8.910;2023-05-07T09:41:10;12.32;;;9.70;;
33094;SDS011;19459;53.044;8.910;2023-05-07T09:43:37;11.27;;;8.40;;
33094;SDS011;19459;53.044;8.910;2023-05-07T09:46:14;13.27;;;8.40;;
33094;SDS011;19459;53.044;8.910;2023-05-07T09:48:42;12.20;;;9.40;;
33094;SDS011;19459;53.044;8.910;2023-05-07T09:51:11;13.18;;;9.70;;
33094;SDS011;19459;53.044;8.910;2023-05-07T09:53:52;17.45;;;9.90;;
33094;SDS011;19459;53.044;8.910;2023-05-07T09:56:18;13.88;;;9.70;;
33094;SDS011;19459;53.044;8.910;2023-05-07T09:58:45;11.55;;;8.98;;
33094;SDS011;19459;53.044;8.910;2023-05-07T10:01:12;11.02;;;8.93;;
33094;SDS011;19459;53.044;8.910;2023-05-07T10:03:41;11.48;;;9.40;;
33094;SDS011;19459;53.044;8.910;2023-05-07T10:06:09;11.55;;;9.90;;
33094;SDS011;19459;53.044;8.910;2023-05-07T10:08:35;12.07;;;9.38;;
33094;SDS011;19459;53.044;8.910;2023-05-07T10:11:05;14.13;;;9.57;;
33094;SDS011;19459;53.044;8.910;2023-05-07T10:13:34;13.57;;;10.30;;
33094;SDS011;19459;53.044;8.910;2023-05-07T10:16:01;13.38;;;8.80;;
33094;SDS011;19459;53.044;8.910;2023-05-07T10:18:30;11.90;;;9.60;;
33094;SDS011;19459;53.044;8.910;2023-05-07T10:21:16;11.07;;;9.13;;
33094;SDS011;19459;53.044;8.910;2023-05-07T10:23:50;12.27;;;9.25;;
33094;SDS011;19459;53.044;8.910;2023-05-07T10:26:22;12.75;;;9.75;;
33094;SDS011;19459;53.044;8.910;2023-05-07T10:28:51;13.50;;;9.57;;
33094;SDS011;19459;53.044;8.910;2023-05-07T10:34:07;13.88;;;9.60;;
33094;SDS011;19459;53.044;8.910;2023-05-07T10:36:36;13.18;;;8.63;;
33094;SDS011;19459;53.044;8.910;2023-05-07T10:39:04;11.82;;;8.73;;
33094;SDS011;19459;53.044;8.910;2023-05-07T10:41:31;10.80;;;8.98;;
33094;SDS011;19459;53.044;8.910;2023-05-07T10:43:57;13.05;;;9.73;;
33094;SDS011;19459;53.044;8.910;2023-05-07T10:46:26;12.70;;;10.50;;
33094;SDS011;19459;53.044;8.910;2023-05-07T10:49:13;11.80;;;10.25;;
33094;SDS011;19459;53.044;8.910;2023-05-07T10:51:39;12.50;;;9.15;;
33094;SDS011;19459;53.044;8.910;2023-05-07T10:56:37;11.20;;;9.05;;
33094;SDS011;19459;53.044;8.910;2023-05-07T11:01:57;12.88;;;9.48;;
33094;SDS011;19459;53.044;8.910;2023-05-07T11:04:29;15.15;;;10.25;;
33094;SDS011;19459;53.044;8.910;2023-05-07T11:15:33;12.82;;;9.20;;
33094;SDS011;19459;53.044;8.910;2023-05-07T11:18:02;15.35;;;12.05;;
33094;SDS011;19459;53.044;8.910;2023-05-07T11:26:02;36.05;;;25.35;;
33094;SDS011;19459;53.044;8.910;2023-05-07T11:28:30;13.68;;;9.32;;
33094;SDS011;19459;53.044;8.910;2023-05-07T11:30:58;11.10;;;8.50;;
33094;SDS011;19459;53.044;8.910;2023-05-07T11:33:24;12.35;;;9.50;;
33094;SDS011;19459;53.044;8.910;2023-05-07T11:35:51;9.25;;;8.27;;
33094;SDS011;19459;53.044;8.910;2023-05-07T11:38:19;8.95;;;7.75;;
33094;SDS011;19459;53.044;8.910;2023-05-07T11:40:51;15.15;;;8.77;;
33094;SDS011;19459;53.044;8.910;2023-05-07T11:43:24;12.80;;;8.82;;
33094;SDS011;19459;53.044;8.910;2023-05-07T11:45:49;10.20;;;8.43;;
33094;SDS011;19459;53.044;8.910;2023-05-07T11:48:15;13.18;;;8.15;;
33094;SDS011;19459;53.044;8.910;2023-05-07T11:50:51;10.10;;;8.10;;
33094;SDS011;19459;53.044;8.910;2023-05-07T11:53:20;9.32;;;7.63;;
33094;SDS011;19459;53.044;8.910;2023-05-07T11:55:52;11.85;;;9.20;;
33094;SDS011;19459;53.044;8.910;2023-05-07T11:58:22;9.30;;;7.35;;
33094;SDS011;19459;53.044;8.910;2023-05-07T12:00:53;10.20;;;7.97;;
33094;SDS011;19459;53.044;8.910;2023-05-07T12:03:22;9.25;;;7.85;;
33094;SDS011;19459;53.044;8.910;2023-05-07T12:05:48;9.70;;;7.65;;
33094;SDS011;19459;53.044;8.910;2023-05-07T12:08:14;9.23;;;7.53;;
33094;SDS011;19459;53.044;8.910;2023-05-07T12:10:44;12.38;;;8.65;;
33094;SDS011;19459;53.044;8.910;2023-05-07T12:15:42;8.85;;;7.65;;
33094;SDS011;19459;53.044;8.910;2023-05-07T12:18:08;11.60;;;8.48;;
33094;SDS011;19459;53.044;8.910;2023-05-07T12:20:35;9.93;;;7.75;;
33094;SDS011;19459;53.044;8.910;2023-05-07T12:23:01;9.77;;;8.18;;
33094;SDS011;19459;53.044;8.910;2023-05-07T12:25:40;8.82;;;7.53;;
33094;SDS011;19459;53.044;8.910;2023-05-07T12:28:17;12.02;;;8.00;;
33094;SDS011;19459;53.044;8.910;2023-05-07T12:30:44;10.52;;;8.25;;
33094;SDS011;19459;53.044;8.910;2023-05-07T12:33:15;9.57;;;7.57;;
33094;SDS011;19459;53.044;8.910;2023-05-07T12:35:49;9.48;;;7.60;;
33094;SDS011;19459;53.044;8.910;2023-05-07T12:38:16;10.68;;;7.28;;
33094;SDS011;19459;53.044;8.910;2023-05-07T12:40:49;8.23;;;7.22;;
33094;SDS011;19459;53.044;8.910;2023-05-07T12:43:26;9.32;;;8.23;;
33094;SDS011;19459;53.044;8.910;2023-05-07T12:45:54;8.27;;;7.32;;
33094;SDS011;19459;53.044;8.910;2023-05-07T12:48:22;7.78;;;6.85;;
33094;SDS011;19459;53.044;8.910;2023-05-07T12:50:52;7.78;;;6.97;;
33094;SDS011;19459;53.044;8.910;2023-05-07T12:53:20;12.18;;;8.15;;
33094;SDS011;19459;53.044;8.910;2023-05-07T12:55:48;7.18;;;6.30;;
33094;SDS011;19459;53.044;8.910;2023-05-07T12:58:20;10.18;;;6.93;;
33094;SDS011;19459;53.044;8.910;2023-05-07T13:00:57;9.48;;;7.20;;
33094;SDS011;19459;53.044;8.910;2023-05-07T13:03:29;11.82;;;7.55;;
33094;SDS011;19459;53.044;8.910;2023-05-07T13:06:03;8.10;;;6.63;;
33094;SDS011;19459;53.044;8.910;2023-05-07T13:08:36;10.27;;;6.80;;
33094;SDS011;19459;53.044;8.910;2023-05-07T13:11:10;10.77;;;6.55;;
33094;SDS011;19459;53.044;8.910;2023-05-07T13:13:37;8.55;;;6.43;;
33094;SDS011;19459;53.044;8.910;2023-05-07T13:16:05;7.22;;;6.47;;
33094;SDS011;19459;53.044;8.910;2023-05-07T13:18:33;7.75;;;6.50;;
33094;SDS011;19459;53.044;8.910;2023-05-07T13:21:00;6.65;;;5.78;;
33094;SDS011;19459;53.044;8.910;2023-05-07T13:23:27;6.50;;;5.35;;
33094;SDS011;19459;53.044;8.910;2023-05-07T13:25:53;7.28;;;5.63;;
33094;SDS011;19459;53.044;8.910;2023-05-07T13:28:21;6.38;;;5.35;;
33094;SDS011;19459;53.044;8.910;2023-05-07T13:30:47;7.63;;;5.95;;
33094;SDS011;19459;53.044;8.910;2023-05-07T13:33:14;6.47;;;5.82;;
33094;SDS011;19459;53.044;8.910;2023-05-07T13:35:43;7.03;;;5.18;;
33094;SDS011;19459;53.044;8.910;2023-05-07T13:39:42;9.93;;;6.60;;
33094;SDS011;19459;53.044;8.910;2023-05-07T13:43:42;7.93;;;5.47;;
33094;SDS011;19459;53.044;8.910;2023-05-07T13:46:08;7.05;;;5.05;;
33094;SDS011;19459;53.044;8.910;2023-05-07T13:48:34;12.82;;;6.47;;
33094;SDS011;19459;53.044;8.910;2023-05-07T13:50:59;10.30;;;5.50;;
33094;SDS011;19459;53.044;8.910;2023-05-07T13:53:25;6.97;;;5.55;;
33094;SDS011;19459;53.044;8.910;2023-05-07T13:55:51;6.78;;;5.10;;
33094;SDS011;19459;53.044;8.910;2023-05-07T13:58:17;6.32;;;5.53;;
33094;SDS011;19459;53.044;8.910;2023-05-07T14:00:43;6.60;;;5.65;;
33094;SDS011;19459;53.044;8.910;2023-05-07T14:03:09;7.68;;;6.05;;
33094;SDS011;19459;53.044;8.910;2023-05-07T14:05:35;7.50;;;6.30;;
33094;SDS011;19459;53.044;8.910;2023-05-07T14:08:01;6.10;;;5.45;;
33094;SDS011;19459;53.044;8.910;2023-05-07T14:10:27;8.77;;;5.72;;
33094;SDS011;19459;53.044;8.910;2023-05-07T14:12:53;11.15;;;6.70;;
33094;SDS011;19459;53.044;8.910;2023-05-07T14:15:19;7.55;;;5.90;;
33094;SDS011;19459;53.044;8.910;2023-05-07T14:17:45;9.00;;;6.95;;
33094;SDS011;19459;53.044;8.910;2023-05-07T14:20:11;8.88;;;6.28;;
33094;SDS011;19459;53.044;8.910;2023-05-07T14:22:37;6.45;;;5.85;;
33094;SDS011;19459;53.044;8.910;2023-05-07T14:25:03;7.28;;;6.30;;
33094;SDS011;19459;53.044;8.910;2023-05-07T14:27:30;6.28;;;5.55;;
33094;SDS011;19459;53.044;8.910;2023-05-07T14:29:55;6.82;;;6.13;;
33094;SDS011;19459;53.044;8.910;2023-05-07T14:32:21;24.10;;;7.38;;
33094;SDS011;19459;53.044;8.910;2023-05-07T14:34:47;7.57;;;6.78;;
33094;SDS011;19459;53.044;8.910;2023-05-07T14:37:13;7.07;;;6.10;;
33094;SDS011;19459;53.044;8.910;2023-05-07T14:39:39;7.47;;;6.78;;
33094;SDS011;19459;53.044;8.910;2023-05-07T14:42:05;9.27;;;6.88;;
33094;SDS011;19459;53.044;8.910;2023-05-07T14:44:32;8.43;;;6.82;;
33094;SDS011;19459;53.044;8.910;2023-05-07T14:47:01;8.52;;;6.28;;
33094;SDS011;19459;53.044;8.910;2023-05-07T14:49:30;8.40;;;6.28;;
33094;SDS011;19459;53.044;8.910;2023-05-07T14:51:57;7.70;;;5.35;;
33094;SDS011;19459;53.044;8.910;2023-05-07T14:54:26;8.88;;;7.15;;
33094;SDS011;19459;53.044;8.910;2023-05-07T14:56:51;7.93;;;5.70;;